sensor_id;sensor_type;location;lat;lon;timestamp;P1;durP1;ratioP1;P2;durP2;ratioP2
56122;SDS011;42426;46.104;19.656;2023-04-08T00:00:27;52.08;;;31.10;;
56122;SDS011;42426;46.104;19.656;2023-04-08T00:02:54;49.53;;;29.42;;
56122;SDS011;42426;46.104;19.656;2023-04-08T00:05:28;47.92;;;31.05;;
56122;SDS011;42426;46.104;19.656;2023-04-08T00:08:00;47.95;;;29.38;;
56122;SDS011;42426;46.104;19.656;2023-04-08T00:10:26;47.38;;;27.48;;
56122;SDS011;42426;46.104;19.656;2023-04-08T00:12:54;46.70;;;28.25;;
56122;SDS011;42426;46.104;19.656;2023-04-08T00:15:20;46.97;;;29.88;;
56122;SDS011;42426;46.104;19.656;2023-04-08T00:17:47;46.78;;;29.30;;
56122;SDS011;42426;46.104;19.656;2023-04-08T00:20:22;42.53;;;26.92;;
56122;SDS011;42426;46.104;19.656;2023-04-08T00:22:48;45.90;;;27.60;;
56122;SDS011;42426;46.104;19.656;2023-04-08T00:25:16;49.63;;;28.27;;
56122;SDS011;42426;46.104;19.656;2023-04-08T00:27:48;50.70;;;29.90;;
56122;SDS011;42426;46.104;19.656;2023-04-08T00:30:17;51.47;;;29.58;;
56122;SDS011;42426;46.104;19.656;2023-04-08T00:32:44;48.25;;;28.33;;
56122;SDS011;42426;46.104;19.656;2023-04-08T00:35:11;45.17;;;28.10;;
56122;SDS011;42426;46.104;19.656;2023-04-08T00:37:46;44.22;;;27.27;;
56122;SDS011;42426;46.104;19.656;2023-04-08T00:42:44;51.25;;;27.63;;
56122;SDS011;42426;46.104;19.656;2023-04-08T00:45:19;49.47;;;29.00;;
56122;SDS011;42426;46.104;19.656;2023-04-08T00:47:45;51.92;;;30.10;;
56122;SDS011;42426;46.104;19.656;2023-04-08T00:50:17;49.00;;;30.17;;
56122;SDS011;42426;46.104;19.656;2023-04-08T00:52:44;47.05;;;29.45;;
56122;SDS011;42426;46.104;19.656;2023-04-08T00:55:10;48.90;;;28.52;;
56122;SDS011;42426;46.104;19.656;2023-04-08T00:57:36;51.13;;;30.70;;
56122;SDS011;42426;46.104;19.656;2023-04-08T01:00:03;51.50;;;29.33;;
56122;SDS011;42426;46.104;19.656;2023-04-08T01:02:33;56.13;;;30.17;;
56122;SDS011;42426;46.104;19.656;2023-04-08T01:05:06;46.70;;;28.58;;
56122;SDS011;42426;46.104;19.656;2023-04-08T01:07:37;46.70;;;29.65;;
56122;SDS011;42426;46.104;19.656;2023-04-08T01:10:14;49.28;;;30.35;;
56122;SDS011;42426;46.104;19.656;2023-04-08T01:12:48;54.20;;;27.42;;
56122;SDS011;42426;46.104;19.656;2023-04-08T01:15:18;49.05;;;28.27;;
56122;SDS011;42426;46.104;19.656;2023-04-08T01:17:44;45.05;;;27.13;;
56122;SDS011;42426;46.104;19.656;2023-04-08T01:20:12;45.50;;;27.10;;
56122;SDS011;42426;46.104;19.656;2023-04-08T01:25:21;49.38;;;27.58;;
56122;SDS011;42426;46.104;19.656;2023-04-08T01:27:50;39.60;;;25.67;;
56122;SDS011;42426;46.104;19.656;2023-04-08T01:30:21;49.75;;;28.15;;
56122;SDS011;42426;46.104;19.656;2023-04-08T01:32:50;45.20;;;26.52;;
56122;SDS011;42426;46.104;19.656;2023-04-08T01:35:18;47.67;;;28.13;;
56122;SDS011;42426;46.104;19.656;2023-04-08T01:37:44;41.17;;;25.77;;
56122;SDS011;42426;46.104;19.656;2023-04-08T01:40:12;44.70;;;27.92;;
56122;SDS011;42426;46.104;19.656;2023-04-08T01:42:40;43.70;;;25.65;;
56122;SDS011;42426;46.104;19.656;2023-04-08T01:45:07;48.00;;;28.48;;
56122;SDS011;42426;46.104;19.656;2023-04-08T01:47:34;44.97;;;27.52;;
56122;SDS011;42426;46.104;19.656;2023-04-08T01:50:01;44.70;;;27.85;;
56122;SDS011;42426;46.104;19.656;2023-04-08T01:52:27;42.53;;;26.85;;
56122;SDS011;42426;46.104;19.656;2023-04-08T01:54:54;45.20;;;28.65;;
56122;SDS011;42426;46.104;19.656;2023-04-08T01:57:25;43.75;;;27.80;;
56122;SDS011;42426;46.104;19.656;2023-04-08T01:59:55;39.90;;;26.42;;
56122;SDS011;42426;46.104;19.656;2023-04-08T02:02:24;43.13;;;27.00;;
56122;SDS011;42426;46.104;19.656;2023-04-08T02:05:00;46.10;;;27.33;;
56122;SDS011;42426;46.104;19.656;2023-04-08T02:07:25;42.72;;;28.88;;
56122;SDS011;42426;46.104;19.656;2023-04-08T02:09:51;49.70;;;28.88;;
56122;SDS011;42426;46.104;19.656;2023-04-08T02:12:20;46.97;;;28.10;;
56122;SDS011;42426;46.104;19.656;2023-04-08T02:14:47;45.28;;;27.42;;
56122;SDS011;42426;46.104;19.656;2023-04-08T02:17:17;44.75;;;28.23;;
56122;SDS011;42426;46.104;19.656;2023-04-08T02:19:51;48.08;;;29.25;;
56122;SDS011;42426;46.104;19.656;2023-04-08T02:22:22;46.45;;;28.73;;
56122;SDS011;42426;46.104;19.656;2023-04-08T02:24:54;50.38;;;32.33;;
56122;SDS011;42426;46.104;19.656;2023-04-08T02:27:20;49.95;;;29.60;;
56122;SDS011;42426;46.104;19.656;2023-04-08T02:29:48;46.90;;;28.13;;
56122;SDS011;42426;46.104;19.656;2023-04-08T02:32:15;55.67;;;29.67;;
56122;SDS011;42426;46.104;19.656;2023-04-08T02:34:41;46.38;;;28.67;;
56122;SDS011;42426;46.104;19.656;2023-04-08T02:37:08;47.83;;;30.17;;
56122;SDS011;42426;46.104;19.656;2023-04-08T02:39:34;47.58;;;29.42;;
56122;SDS011;42426;46.104;19.656;2023-04-08T02:42:00;51.13;;;31.13;;
56122;SDS011;42426;46.104;19.656;2023-04-08T02:44:26;50.28;;;30.67;;
56122;SDS011;42426;46.104;19.656;2023-04-08T02:46:51;51.53;;;29.30;;
56122;SDS011;42426;46.104;19.656;2023-04-08T02:49:17;48.08;;;29.58;;
56122;SDS011;42426;46.104;19.656;2023-04-08T02:51:42;42.90;;;29.77;;
56122;SDS011;42426;46.104;19.656;2023-04-08T02:54:08;48.13;;;29.95;;
56122;SDS011;42426;46.104;19.656;2023-04-08T02:56:34;47.05;;;29.50;;
56122;SDS011;42426;46.104;19.656;2023-04-08T02:59:00;53.55;;;30.67;;
56122;SDS011;42426;46.104;19.656;2023-04-08T03:01:25;52.17;;;30.85;;
56122;SDS011;42426;46.104;19.656;2023-04-08T03:03:57;60.95;;;33.10;;
56122;SDS011;42426;46.104;19.656;2023-04-08T03:06:23;52.45;;;32.60;;
56122;SDS011;42426;46.104;19.656;2023-04-08T03:08:50;57.10;;;33.08;;
56122;SDS011;42426;46.104;19.656;2023-04-08T03:11:16;58.05;;;33.67;;
56122;SDS011;42426;46.104;19.656;2023-04-08T03:13:42;60.28;;;36.25;;
56122;SDS011;42426;46.104;19.656;2023-04-08T03:16:07;56.83;;;37.45;;
56122;SDS011;42426;46.104;19.656;2023-04-08T03:18:33;60.15;;;36.03;;
56122;SDS011;42426;46.104;19.656;2023-04-08T03:20:58;54.25;;;34.30;;
56122;SDS011;42426;46.104;19.656;2023-04-08T03:23:25;55.45;;;34.47;;
56122;SDS011;42426;46.104;19.656;2023-04-08T03:25:51;56.28;;;33.85;;
56122;SDS011;42426;46.104;19.656;2023-04-08T03:28:18;63.95;;;34.03;;
56122;SDS011;42426;46.104;19.656;2023-04-08T03:30:44;57.75;;;32.72;;
56122;SDS011;42426;46.104;19.656;2023-04-08T03:33:10;57.28;;;32.53;;
56122;SDS011;42426;46.104;19.656;2023-04-08T03:35:35;61.85;;;34.58;;
56122;SDS011;42426;46.104;19.656;2023-04-08T03:38:02;61.90;;;36.30;;
56122;SDS011;42426;46.104;19.656;2023-04-08T03:40:28;61.88;;;36.00;;
56122;SDS011;42426;46.104;19.656;2023-04-08T03:42:54;63.92;;;36.60;;
56122;SDS011;42426;46.104;19.656;2023-04-08T03:45:20;59.38;;;34.47;;
56122;SDS011;42426;46.104;19.656;2023-04-08T03:47:47;63.97;;;36.25;;
56122;SDS011;42426;46.104;19.656;2023-04-08T03:50:13;62.20;;;36.20;;
56122;SDS011;42426;46.104;19.656;2023-04-08T03:52:39;64.93;;;39.83;;
56122;SDS011;42426;46.104;19.656;2023-04-08T03:55:05;64.78;;;38.30;;
56122;SDS011;42426;46.104;19.656;2023-04-08T03:57:31;66.93;;;37.40;;
56122;SDS011;42426;46.104;19.656;2023-04-08T03:59:57;63.10;;;37.50;;
56122;SDS011;42426;46.104;19.656;2023-04-08T04:02:23;63.85;;;38.22;;
56122;SDS011;42426;46.104;19.656;2023-04-08T04:04:48;71.93;;;39.30;;
56122;SDS011;42426;46.104;19.656;2023-04-08T04:07:14;60.72;;;35.47;;
56122;SDS011;42426;46.104;19.656;2023-04-08T04:09:40;63.75;;;36.20;;
56122;SDS011;42426;46.104;19.656;2023-04-08T04:12:06;60.53;;;35.40;;
56122;SDS011;42426;46.104;19.656;2023-04-08T04:14:31;61.67;;;36.33;;
56122;SDS011;42426;46.104;19.656;2023-04-08T04:16:57;61.20;;;38.03;;
56122;SDS011;42426;46.104;19.656;2023-04-08T04:19:22;74.88;;;39.63;;
56122;SDS011;42426;46.104;19.656;2023-04-08T04:21:48;61.28;;;37.42;;
56122;SDS011;42426;46.104;19.656;2023-04-08T04:24:14;63.70;;;37.42;;
56122;SDS011;42426;46.104;19.656;2023-04-08T04:26:40;65.78;;;38.25;;
56122;SDS011;42426;46.104;19.656;2023-04-08T04:29:06;65.78;;;38.85;;
56122;SDS011;42426;46.104;19.656;2023-04-08T04:31:31;63.97;;;37.50;;
56122;SDS011;42426;46.104;19.656;2023-04-08T04:33:57;60.22;;;35.85;;
56122;SDS011;42426;46.104;19.656;2023-04-08T04:36:23;63.35;;;38.33;;
56122;SDS011;42426;46.104;19.656;2023-04-08T04:38:49;62.92;;;38.78;;
56122;SDS011;42426;46.104;19.656;2023-04-08T04:41:15;61.13;;;38.95;;
56122;SDS011;42426;46.104;19.656;2023-04-08T04:43:41;67.95;;;40.10;;
56122;SDS011;42426;46.104;19.656;2023-04-08T04:46:06;65.90;;;38.20;;
56122;SDS011;42426;46.104;19.656;2023-04-08T04:48:33;70.55;;;41.05;;
56122;SDS011;42426;46.104;19.656;2023-04-08T04:50:59;66.90;;;36.60;;
56122;SDS011;42426;46.104;19.656;2023-04-08T04:53:27;67.05;;;39.17;;
56122;SDS011;42426;46.104;19.656;2023-04-08T04:56:31;67.32;;;37.88;;
56122;SDS011;42426;46.104;19.656;2023-04-08T04:59:00;70.43;;;38.47;;
56122;SDS011;42426;46.104;19.656;2023-04-08T05:01:32;61.65;;;37.22;;
56122;SDS011;42426;46.104;19.656;2023-04-08T05:03:58;68.55;;;39.55;;
56122;SDS011;42426;46.104;19.656;2023-04-08T05:06:24;69.68;;;37.13;;
56122;SDS011;42426;46.104;19.656;2023-04-08T05:08:51;62.38;;;35.50;;
56122;SDS011;42426;46.104;19.656;2023-04-08T05:11:17;67.35;;;37.83;;
56122;SDS011;42426;46.104;19.656;2023-04-08T05:13:44;63.05;;;35.65;;
56122;SDS011;42426;46.104;19.656;2023-04-08T05:16:09;72.38;;;40.97;;
56122;SDS011;42426;46.104;19.656;2023-04-08T05:18:35;65.15;;;36.67;;
56122;SDS011;42426;46.104;19.656;2023-04-08T05:21:01;61.90;;;35.17;;
56122;SDS011;42426;46.104;19.656;2023-04-08T05:23:27;67.57;;;39.20;;
56122;SDS011;42426;46.104;19.656;2023-04-08T05:25:52;64.30;;;37.45;;
56122;SDS011;42426;46.104;19.656;2023-04-08T05:28:18;65.78;;;37.25;;
56122;SDS011;42426;46.104;19.656;2023-04-08T05:30:48;60.28;;;36.22;;
56122;SDS011;42426;46.104;19.656;2023-04-08T05:33:14;61.70;;;35.17;;
56122;SDS011;42426;46.104;19.656;2023-04-08T05:35:40;67.32;;;36.60;;
56122;SDS011;42426;46.104;19.656;2023-04-08T05:38:06;68.05;;;37.10;;
56122;SDS011;42426;46.104;19.656;2023-04-08T05:40:32;66.30;;;36.75;;
56122;SDS011;42426;46.104;19.656;2023-04-08T05:42:57;70.78;;;38.63;;
56122;SDS011;42426;46.104;19.656;2023-04-08T05:45:23;70.05;;;37.17;;
56122;SDS011;42426;46.104;19.656;2023-04-08T05:47:49;67.50;;;38.67;;
56122;SDS011;42426;46.104;19.656;2023-04-08T05:50:14;65.78;;;37.08;;
56122;SDS011;42426;46.104;19.656;2023-04-08T05:52:41;66.50;;;36.92;;
56122;SDS011;42426;46.104;19.656;2023-04-08T05:55:10;62.10;;;35.72;;
56122;SDS011;42426;46.104;19.656;2023-04-08T05:57:37;61.92;;;36.10;;
56122;SDS011;42426;46.104;19.656;2023-04-08T06:00:06;63.83;;;36.58;;
56122;SDS011;42426;46.104;19.656;2023-04-08T06:02:33;68.90;;;37.20;;
56122;SDS011;42426;46.104;19.656;2023-04-08T06:05:00;60.88;;;36.10;;
56122;SDS011;42426;46.104;19.656;2023-04-08T06:07:26;65.57;;;34.28;;
56122;SDS011;42426;46.104;19.656;2023-04-08T06:09:52;58.95;;;34.35;;
56122;SDS011;42426;46.104;19.656;2023-04-08T06:12:17;54.63;;;34.00;;
56122;SDS011;42426;46.104;19.656;2023-04-08T06:14:43;59.20;;;34.90;;
56122;SDS011;42426;46.104;19.656;2023-04-08T06:17:09;58.00;;;36.03;;
56122;SDS011;42426;46.104;19.656;2023-04-08T06:19:35;51.97;;;33.55;;
56122;SDS011;42426;46.104;19.656;2023-04-08T06:22:00;58.70;;;34.45;;
56122;SDS011;42426;46.104;19.656;2023-04-08T06:24:26;62.60;;;33.35;;
56122;SDS011;42426;46.104;19.656;2023-04-08T06:26:54;54.03;;;32.20;;
56122;SDS011;42426;46.104;19.656;2023-04-08T06:29:21;59.72;;;35.10;;
56122;SDS011;42426;46.104;19.656;2023-04-08T06:31:47;57.47;;;33.90;;
56122;SDS011;42426;46.104;19.656;2023-04-08T06:34:13;53.22;;;31.58;;
56122;SDS011;42426;46.104;19.656;2023-04-08T06:36:39;55.40;;;32.58;;
56122;SDS011;42426;46.104;19.656;2023-04-08T06:39:05;53.58;;;31.90;;
56122;SDS011;42426;46.104;19.656;2023-04-08T06:41:31;53.70;;;34.60;;
56122;SDS011;42426;46.104;19.656;2023-04-08T06:43:56;56.88;;;32.50;;
56122;SDS011;42426;46.104;19.656;2023-04-08T06:46:22;62.55;;;33.53;;
56122;SDS011;42426;46.104;19.656;2023-04-08T06:48:48;61.63;;;36.75;;
56122;SDS011;42426;46.104;19.656;2023-04-08T06:51:14;52.13;;;31.98;;
56122;SDS011;42426;46.104;19.656;2023-04-08T06:53:40;57.05;;;32.72;;
56122;SDS011;42426;46.104;19.656;2023-04-08T06:56:06;53.38;;;32.90;;
56122;SDS011;42426;46.104;19.656;2023-04-08T06:58:32;60.15;;;35.42;;
56122;SDS011;42426;46.104;19.656;2023-04-08T07:00:58;57.88;;;32.90;;
56122;SDS011;42426;46.104;19.656;2023-04-08T07:03:25;49.13;;;29.98;;
56122;SDS011;42426;46.104;19.656;2023-04-08T07:05:52;55.17;;;32.70;;
56122;SDS011;42426;46.104;19.656;2023-04-08T07:08:18;51.28;;;30.65;;
56122;SDS011;42426;46.104;19.656;2023-04-08T07:10:44;55.22;;;33.60;;
56122;SDS011;42426;46.104;19.656;2023-04-08T07:13:09;50.70;;;31.50;;
56122;SDS011;42426;46.104;19.656;2023-04-08T07:15:35;54.92;;;31.63;;
56122;SDS011;42426;46.104;19.656;2023-04-08T07:18:01;53.60;;;31.05;;
56122;SDS011;42426;46.104;19.656;2023-04-08T07:20:28;50.83;;;28.90;;
56122;SDS011;42426;46.104;19.656;2023-04-08T07:22:54;43.38;;;27.50;;
56122;SDS011;42426;46.104;19.656;2023-04-08T07:25:20;42.00;;;27.15;;
56122;SDS011;42426;46.104;19.656;2023-04-08T07:27:46;43.75;;;27.27;;
56122;SDS011;42426;46.104;19.656;2023-04-08T07:30:11;42.70;;;26.65;;
56122;SDS011;42426;46.104;19.656;2023-04-08T07:32:37;49.22;;;29.13;;
56122;SDS011;42426;46.104;19.656;2023-04-08T07:35:03;49.97;;;32.65;;
56122;SDS011;42426;46.104;19.656;2023-04-08T07:37:29;47.75;;;28.75;;
56122;SDS011;42426;46.104;19.656;2023-04-08T07:39:55;48.65;;;29.23;;
56122;SDS011;42426;46.104;19.656;2023-04-08T07:42:20;43.30;;;27.85;;
56122;SDS011;42426;46.104;19.656;2023-04-08T07:44:47;44.50;;;26.85;;
56122;SDS011;42426;46.104;19.656;2023-04-08T07:47:13;42.97;;;27.33;;
56122;SDS011;42426;46.104;19.656;2023-04-08T07:49:39;41.72;;;26.85;;
56122;SDS011;42426;46.104;19.656;2023-04-08T07:52:05;42.88;;;28.17;;
56122;SDS011;42426;46.104;19.656;2023-04-08T07:54:31;47.92;;;27.10;;
56122;SDS011;42426;46.104;19.656;2023-04-08T07:57:00;38.38;;;25.42;;
56122;SDS011;42426;46.104;19.656;2023-04-08T07:59:26;41.95;;;27.10;;
56122;SDS011;42426;46.104;19.656;2023-04-08T08:01:52;41.75;;;27.38;;
56122;SDS011;42426;46.104;19.656;2023-04-08T08:04:18;43.67;;;28.98;;
56122;SDS011;42426;46.104;19.656;2023-04-08T08:06:45;44.13;;;28.23;;
56122;SDS011;42426;46.104;19.656;2023-04-08T08:09:11;43.90;;;27.70;;
56122;SDS011;42426;46.104;19.656;2023-04-08T08:11:37;46.00;;;26.55;;
56122;SDS011;42426;46.104;19.656;2023-04-08T08:14:03;44.83;;;27.77;;
56122;SDS011;42426;46.104;19.656;2023-04-08T08:16:29;44.70;;;27.63;;
56122;SDS011;42426;46.104;19.656;2023-04-08T08:18:56;36.97;;;26.50;;
56122;SDS011;42426;46.104;19.656;2023-04-08T08:21:22;39.03;;;24.35;;
56122;SDS011;42426;46.104;19.656;2023-04-08T08:23:48;36.05;;;24.13;;
56122;SDS011;42426;46.104;19.656;2023-04-08T08:26:15;35.70;;;21.85;;
56122;SDS011;42426;46.104;19.656;2023-04-08T08:28:41;36.75;;;24.50;;
56122;SDS011;42426;46.104;19.656;2023-04-08T08:31:07;32.67;;;21.45;;
56122;SDS011;42426;46.104;19.656;2023-04-08T08:33:33;30.48;;;21.90;;
56122;SDS011;42426;46.104;19.656;2023-04-08T08:35:58;35.97;;;21.52;;
56122;SDS011;42426;46.104;19.656;2023-04-08T08:38:24;33.05;;;20.98;;
56122;SDS011;42426;46.104;19.656;2023-04-08T08:40:54;30.98;;;20.23;;
56122;SDS011;42426;46.104;19.656;2023-04-08T08:43:21;34.47;;;21.15;;
56122;SDS011;42426;46.104;19.656;2023-04-08T08:45:51;36.28;;;22.55;;
56122;SDS011;42426;46.104;19.656;2023-04-08T08:48:17;33.78;;;21.00;;
56122;SDS011;42426;46.104;19.656;2023-04-08T08:50:43;31.95;;;20.30;;
56122;SDS011;42426;46.104;19.656;2023-04-08T08:53:09;31.38;;;20.92;;
56122;SDS011;42426;46.104;19.656;2023-04-08T08:55:35;35.20;;;21.85;;
56122;SDS011;42426;46.104;19.656;2023-04-08T08:58:03;35.05;;;23.08;;
56122;SDS011;42426;46.104;19.656;2023-04-08T09:00:39;34.00;;;22.90;;
56122;SDS011;42426;46.104;19.656;2023-04-08T09:05:48;38.42;;;22.17;;
56122;SDS011;42426;46.104;19.656;2023-04-08T09:08:23;34.75;;;23.17;;
56122;SDS011;42426;46.104;19.656;2023-04-08T09:10:55;34.60;;;22.40;;
56122;SDS011;42426;46.104;19.656;2023-04-08T09:13:34;34.25;;;23.42;;
56122;SDS011;42426;46.104;19.656;2023-04-08T09:16:05;40.50;;;24.60;;
56122;SDS011;42426;46.104;19.656;2023-04-08T09:18:33;39.33;;;23.95;;
56122;SDS011;42426;46.104;19.656;2023-04-08T09:21:01;32.63;;;22.40;;
56122;SDS011;42426;46.104;19.656;2023-04-08T09:26:09;27.95;;;19.70;;
56122;SDS011;42426;46.104;19.656;2023-04-08T09:28:36;30.58;;;20.13;;
56122;SDS011;42426;46.104;19.656;2023-04-08T09:31:19;32.05;;;19.45;;
56122;SDS011;42426;46.104;19.656;2023-04-08T09:33:52;31.95;;;20.67;;
56122;SDS011;42426;46.104;19.656;2023-04-08T09:36:20;34.78;;;21.02;;
56122;SDS011;42426;46.104;19.656;2023-04-08T09:38:46;33.70;;;21.42;;
56122;SDS011;42426;46.104;19.656;2023-04-08T09:41:16;31.67;;;20.08;;
56122;SDS011;42426;46.104;19.656;2023-04-08T09:43:48;33.53;;;21.27;;
56122;SDS011;42426;46.104;19.656;2023-04-08T09:49:12;29.08;;;19.92;;
56122;SDS011;42426;46.104;19.656;2023-04-08T09:54:54;32.67;;;20.10;;
56122;SDS011;42426;46.104;19.656;2023-04-08T09:57:40;29.95;;;19.30;;
56122;SDS011;42426;46.104;19.656;2023-04-08T10:02:44;28.17;;;19.40;;
56122;SDS011;42426;46.104;19.656;2023-04-08T10:05:26;31.90;;;19.05;;
56122;SDS011;42426;46.104;19.656;2023-04-08T10:07:57;30.80;;;20.17;;
56122;SDS011;42426;46.104;19.656;2023-04-08T10:10:23;29.08;;;19.20;;
56122;SDS011;42426;46.104;19.656;2023-04-08T10:12:50;29.88;;;21.02;;
56122;SDS011;42426;46.104;19.656;2023-04-08T10:17:48;29.63;;;18.83;;
56122;SDS011;42426;46.104;19.656;2023-04-08T10:20:39;29.35;;;21.33;;
56122;SDS011;42426;46.104;19.656;2023-04-08T10:23:06;30.77;;;20.45;;
56122;SDS011;42426;46.104;19.656;2023-04-08T10:25:34;28.25;;;19.17;;
56122;SDS011;42426;46.104;19.656;2023-04-08T10:30:44;29.85;;;19.73;;
56122;SDS011;42426;46.104;19.656;2023-04-08T10:35:37;30.48;;;20.27;;
56122;SDS011;42426;46.104;19.656;2023-04-08T10:38:06;33.70;;;21.15;;
56122;SDS011;42426;46.104;19.656;2023-04-08T10:40:37;29.35;;;21.10;;
56122;SDS011;42426;46.104;19.656;2023-04-08T10:43:06;31.75;;;20.95;;
56122;SDS011;42426;46.104;19.656;2023-04-08T10:45:36;33.20;;;21.27;;
56122;SDS011;42426;46.104;19.656;2023-04-08T10:50:52;35.30;;;22.05;;
56122;SDS011;42426;46.104;19.656;2023-04-08T10:53:39;29.70;;;20.58;;
56122;SDS011;42426;46.104;19.656;2023-04-08T10:58:32;30.05;;;20.55;;
56122;SDS011;42426;46.104;19.656;2023-04-08T11:01:02;30.85;;;21.45;;
56122;SDS011;42426;46.104;19.656;2023-04-08T11:03:31;37.40;;;24.33;;
56122;SDS011;42426;46.104;19.656;2023-04-08T11:05:58;30.52;;;21.27;;
56122;SDS011;42426;46.104;19.656;2023-04-08T11:08:34;32.00;;;21.02;;
56122;SDS011;42426;46.104;19.656;2023-04-08T11:11:01;27.65;;;18.98;;
56122;SDS011;42426;46.104;19.656;2023-04-08T11:13:28;29.60;;;20.73;;
56122;SDS011;42426;46.104;19.656;2023-04-08T11:15:55;29.60;;;21.00;;
56122;SDS011;42426;46.104;19.656;2023-04-08T11:18:22;29.42;;;20.75;;
56122;SDS011;42426;46.104;19.656;2023-04-08T11:20:52;31.48;;;19.95;;
56122;SDS011;42426;46.104;19.656;2023-04-08T11:23:18;30.00;;;19.45;;
56122;SDS011;42426;46.104;19.656;2023-04-08T11:25:46;26.50;;;19.00;;
56122;SDS011;42426;46.104;19.656;2023-04-08T11:28:17;31.58;;;20.05;;
56122;SDS011;42426;46.104;19.656;2023-04-08T11:30:50;25.45;;;18.55;;
56122;SDS011;42426;46.104;19.656;2023-04-08T11:33:24;27.05;;;18.75;;
56122;SDS011;42426;46.104;19.656;2023-04-08T11:35:51;29.10;;;20.25;;
56122;SDS011;42426;46.104;19.656;2023-04-08T11:38:21;29.08;;;18.83;;
56122;SDS011;42426;46.104;19.656;2023-04-08T11:40:52;28.65;;;19.63;;
56122;SDS011;42426;46.104;19.656;2023-04-08T11:43:20;33.90;;;21.13;;
56122;SDS011;42426;46.104;19.656;2023-04-08T11:45:47;32.17;;;21.33;;
56122;SDS011;42426;46.104;19.656;2023-04-08T11:48:14;38.85;;;25.33;;
56122;SDS011;42426;46.104;19.656;2023-04-08T11:50:41;39.25;;;25.30;;
56122;SDS011;42426;46.104;19.656;2023-04-08T11:53:17;34.40;;;23.27;;
56122;SDS011;42426;46.104;19.656;2023-04-08T11:55:44;41.20;;;24.58;;
56122;SDS011;42426;46.104;19.656;2023-04-08T11:58:10;38.60;;;24.42;;
56122;SDS011;42426;46.104;19.656;2023-04-08T12:00:37;31.60;;;21.95;;
56122;SDS011;42426;46.104;19.656;2023-04-08T12:03:04;36.25;;;23.63;;
56122;SDS011;42426;46.104;19.656;2023-04-08T12:05:32;38.80;;;23.90;;
56122;SDS011;42426;46.104;19.656;2023-04-08T12:07:58;40.17;;;24.92;;
56122;SDS011;42426;46.104;19.656;2023-04-08T12:10:24;40.42;;;24.38;;
56122;SDS011;42426;46.104;19.656;2023-04-08T12:12:50;36.70;;;24.85;;
56122;SDS011;42426;46.104;19.656;2023-04-08T12:15:20;43.47;;;28.25;;
56122;SDS011;42426;46.104;19.656;2023-04-08T12:17:53;40.72;;;25.55;;
56122;SDS011;42426;46.104;19.656;2023-04-08T12:20:26;40.40;;;25.45;;
56122;SDS011;42426;46.104;19.656;2023-04-08T12:22:53;46.20;;;27.13;;
56122;SDS011;42426;46.104;19.656;2023-04-08T12:25:30;39.78;;;27.15;;
56122;SDS011;42426;46.104;19.656;2023-04-08T12:28:09;39.30;;;25.88;;
56122;SDS011;42426;46.104;19.656;2023-04-08T12:30:42;44.10;;;28.08;;
56122;SDS011;42426;46.104;19.656;2023-04-08T12:33:08;38.63;;;25.15;;
56122;SDS011;42426;46.104;19.656;2023-04-08T12:35:35;40.53;;;26.23;;
56122;SDS011;42426;46.104;19.656;2023-04-08T12:38:01;41.35;;;25.17;;
56122;SDS011;42426;46.104;19.656;2023-04-08T12:40:31;41.85;;;26.40;;
56122;SDS011;42426;46.104;19.656;2023-04-08T12:42:58;37.40;;;25.83;;
56122;SDS011;42426;46.104;19.656;2023-04-08T12:45:29;39.90;;;25.65;;
56122;SDS011;42426;46.104;19.656;2023-04-08T12:47:55;37.72;;;25.38;;
56122;SDS011;42426;46.104;19.656;2023-04-08T12:50:23;39.95;;;24.02;;
56122;SDS011;42426;46.104;19.656;2023-04-08T12:52:55;40.58;;;26.85;;
56122;SDS011;42426;46.104;19.656;2023-04-08T12:55:26;38.55;;;25.63;;
56122;SDS011;42426;46.104;19.656;2023-04-08T13:00:33;43.05;;;27.10;;
56122;SDS011;42426;46.104;19.656;2023-04-08T13:03:04;37.65;;;24.70;;
56122;SDS011;42426;46.104;19.656;2023-04-08T13:05:36;36.33;;;25.13;;
56122;SDS011;42426;46.104;19.656;2023-04-08T13:08:12;38.25;;;25.52;;
56122;SDS011;42426;46.104;19.656;2023-04-08T13:10:38;41.97;;;25.70;;
56122;SDS011;42426;46.104;19.656;2023-04-08T13:13:06;42.25;;;25.75;;
56122;SDS011;42426;46.104;19.656;2023-04-08T13:15:32;42.75;;;27.25;;
56122;SDS011;42426;46.104;19.656;2023-04-08T13:18:03;39.15;;;25.27;;
56122;SDS011;42426;46.104;19.656;2023-04-08T13:20:29;38.38;;;24.73;;
56122;SDS011;42426;46.104;19.656;2023-04-08T13:22:55;38.17;;;24.63;;
56122;SDS011;42426;46.104;19.656;2023-04-08T13:25:39;50.10;;;30.00;;
56122;SDS011;42426;46.104;19.656;2023-04-08T13:28:06;49.17;;;29.50;;
56122;SDS011;42426;46.104;19.656;2023-04-08T13:30:34;40.85;;;26.17;;
56122;SDS011;42426;46.104;19.656;2023-04-08T13:33:00;42.45;;;26.80;;
56122;SDS011;42426;46.104;19.656;2023-04-08T13:35:47;36.10;;;24.20;;
56122;SDS011;42426;46.104;19.656;2023-04-08T13:38:14;36.50;;;22.08;;
56122;SDS011;42426;46.104;19.656;2023-04-08T13:40:42;38.67;;;24.00;;
56122;SDS011;42426;46.104;19.656;2023-04-08T13:43:10;38.63;;;24.92;;
56122;SDS011;42426;46.104;19.656;2023-04-08T13:45:39;38.92;;;25.83;;
56122;SDS011;42426;46.104;19.656;2023-04-08T13:48:08;41.72;;;26.83;;
56122;SDS011;42426;46.104;19.656;2023-04-08T13:50:35;34.88;;;25.20;;
56122;SDS011;42426;46.104;19.656;2023-04-08T13:53:01;39.55;;;24.95;;
56122;SDS011;42426;46.104;19.656;2023-04-08T13:55:29;36.33;;;24.88;;
56122;SDS011;42426;46.104;19.656;2023-04-08T13:57:55;34.03;;;23.10;;
56122;SDS011;42426;46.104;19.656;2023-04-08T14:00:21;33.40;;;22.25;;
56122;SDS011;42426;46.104;19.656;2023-04-08T14:02:47;35.20;;;22.63;;
56122;SDS011;42426;46.104;19.656;2023-04-08T14:05:14;32.95;;;22.08;;
56122;SDS011;42426;46.104;19.656;2023-04-08T14:07:40;37.40;;;24.48;;
56122;SDS011;42426;46.104;19.656;2023-04-08T14:10:06;34.53;;;24.83;;
56122;SDS011;42426;46.104;19.656;2023-04-08T14:12:32;33.25;;;23.08;;
56122;SDS011;42426;46.104;19.656;2023-04-08T14:14:58;40.67;;;25.13;;
56122;SDS011;42426;46.104;19.656;2023-04-08T14:17:24;35.80;;;24.00;;
56122;SDS011;42426;46.104;19.656;2023-04-08T14:19:50;35.35;;;23.77;;
56122;SDS011;42426;46.104;19.656;2023-04-08T14:22:16;40.15;;;25.08;;
56122;SDS011;42426;46.104;19.656;2023-04-08T14:24:43;36.60;;;24.45;;
56122;SDS011;42426;46.104;19.656;2023-04-08T14:27:09;37.75;;;26.15;;
56122;SDS011;42426;46.104;19.656;2023-04-08T14:29:35;41.47;;;26.13;;
56122;SDS011;42426;46.104;19.656;2023-04-08T14:32:01;41.28;;;26.45;;
56122;SDS011;42426;46.104;19.656;2023-04-08T14:34:28;39.17;;;23.50;;
56122;SDS011;42426;46.104;19.656;2023-04-08T14:36:54;43.92;;;26.63;;
56122;SDS011;42426;46.104;19.656;2023-04-08T14:39:21;55.95;;;35.35;;
56122;SDS011;42426;46.104;19.656;2023-04-08T14:41:47;41.05;;;25.90;;
56122;SDS011;42426;46.104;19.656;2023-04-08T14:44:12;46.60;;;26.67;;
56122;SDS011;42426;46.104;19.656;2023-04-08T14:46:38;36.15;;;25.10;;